AirNav   Air Wisconsin Up To $57,000 Bonus
 
 1384 users online  

8MI0 MidMichigan Health Park Heliport
Bay City, Michigan, USA


FAA INFORMATION EFFECTIVE 30 DECEMBER 2021

Location

FAA Identifier: 8MI0
Lat/Long: 43-37-03.8000N 083-55-50.4400W
43-37.063333N 083-55.840667W
43.6177222,-83.9306778
(estimated)
Elevation: 596 ft. / 182 m (estimated)
From city: 2 miles NW of BAY CITY, MI
Time zone: UTC +0 (year round; does not observe DST)
Zip code: 48706

Heliport Operations

Heliport use: Private use, MEDICAL USE.
Activation date: 06/2021
Control tower: no
ARTCC: CLEVELAND CENTER
FSS: LANSING FLIGHT SERVICE STATION
Attendance: UNATNDD
Segmented circle: no

Heliport Communications

CTAF: 122.9
WX ASOS at MBS (8 nm SW): 118.325 (989-695-2488)
WX AWOS-3P at HYX (11 nm S): 118.325 (989-752-3408)
WX AWOS-3 at IKW (15 nm W): 119.525 (989-835-5841)

Nearby radio navigation aids

VOR radial/distance  VOR name  Freq  Var
MBSr054/8.2SAGINAW VOR/DME112.9003W
MOPr096/35.0MOUNT PLEASANT VOR/DME110.6005W
FNTr354/39.9FLINT VORTAC116.9006W

 
NDB name  Hdg/Dist  Freq  Var  ID
OLSTE056/14.325707WMB -- -...

Heliport Services

Runway Information

Helipad H1

Dimensions: 40 x 40 ft. / 12 x 12 m
Surface: concrete
Latitude: 43-37.063333N
Longitude: 083-55.840667W
Elevation: 596.0 ft.
Traffic pattern: leftleft

Heliport Ownership and Management from official FAA records

Ownership: Privately-owned
Owner: MIDMICHIGAN HEALTH PARK
3051 KIESEL RD
BAY CITY, MI 48706-2449
Phone 989-839-3000
Manager: LYLE SAYLOR
3051 KIESEL RD
BAY CITY, MI 48706-2449
Phone 989-839-3000

Additional Remarks

FOR CD CTC GREAT LAKES APCH AT 269-459-3345, WHEN APCH CLSD CTC CLEVELAND ARTCC AT 440-774-0224/0490.

Instrument Procedures

There are no published instrument procedures at 8MI0.

Some nearby airports with instrument procedures:

3CM - James Clements Municipal Airport (5 nm S)
KMBS - MBS International Airport (8 nm SW)
KHYX - Saginaw County H W Browne Airport (11 nm S)
KIKW - Jack Barstow Airport (15 nm W)
KCFS - Tuscola Area Airport (23 nm SE)
 
Loc | Ops | Rwys | IFR | FBO | Links
Com | Nav | Svcs | Stats | Notes
Aerial photo
No photo
 
Airport distance calculator
Flying to MidMichigan Health Park Heliport? Find the distance to fly.

From to 8MI0

Sunrise and sunset
Times for 19-Jan-2022
 Zulu (UTC)
Morning civil twilight12:33
Sunrise13:05
Sunset22:28
Evening civil twilight23:00

Current date and time
Zulu (UTC)  19-Jan-2022 17:19:28
 
METAR
KMBS 
8nm SW 
191653Z 28017G27KT 10SM OVC030 M01/M07 A2984 RMK AO2 PK WND 29031/1615 SLP110 T10111072 $
KHYX 
11nm S 
191655Z AUTO 27017G24KT 10SM OVC033 00/M06 A2983 RMK AO2 T00031061
KIKW 
15nm W 
191655Z AUTO 27013G22KT 10SM OVC029 M01/M08 A2984 RMK AO2 T10111082
TAF
KMBS 
8nm SW 
191135Z 1912/2012 27020G30KT P6SM OVC025 FM191500 28015G25KT P6SM SCT025 BKN040 FM191700 30013G20KT P6SM SCT040 FM192200 30013KT P6SM SCT025 BKN040 FM200200 33010KT P6SM SCT040
NOTAMs
Click for the latest NOTAMs
NOTAMs are issued by the DoD/FAA and will open in a separate window not controlled by AirNav.

 

 
 

Would you like to see your business listed on this page?

 If your business provides an interesting product or service to pilots, flight crews, aircraft, or users of the MidMichigan Health Park Heliport, you should consider listing it here.  To start the listing process, click on the button below
 
Add a business
 

Other Pages about MidMichigan Health Park Heliport

Update a link
 
Copyright © AirNav, LLC. All rights reserved. Privacy Policy  Contact